Wednesday, September 19, 2018, 7:19 PM GMT
Back to Local

CWSD, Summerside Automatic Weather Reporting System

Location: , , Canada Lat: 46.433
Local Time: 7:19 PM GMT (19:19 GMT) Lon: -63.85
Time Zone: GMT Elev: 78 ft

Show me the last for .
Show Coded

Time T Td Feel RH Dir Speed Gust Alt SLP Vis Weather Sky Remarks
2018-09-19 18:00 56 49 - 78 60° 18 - - 30.05 0 Peak wind: 25 mph (22 kts) from 60° at 14 min
2018-09-19 17:00 55 51 - 88 60° 18 25 - 30.05 0 Peak wind: 25 mph (22 kts) from 60° at 50 min
1-hr Precip Total: 0.01"
2018-09-19 16:00 56 52 - 84 60° 20 - - 30.03 0 Peak wind: 26 mph (23 kts) from 60° at 41 min
2018-09-19 15:00 55 51 - 87 60° 20 25 - 30.03 0 Peak wind: 25 mph (22 kts) from 60° at 20 min
2018-09-19 14:00 54 52 - 92 60° 20 25 - 30.02 0 Peak wind: 26 mph (23 kts) from 60° at 09 min
2018-09-19 13:00 54 52 - 93 60° 18 24 - 30.00 0 Peak wind: 25 mph (22 kts) from 70° at 22 min
1-hr Precip Total: 0.02"
2018-09-19 12:00 54 52 - 94 60° 17 23 - 29.97 0 Peak wind: 24 mph (21 kts) from 70° at 05 min
1-hr Precip Total: 0.03"
2018-09-19 11:00 54 52 - 92 60° 16 25 - 29.95 0 Peak wind: 25 mph (22 kts) from 80° at 35 min
2018-09-19 10:00 54 51 - 92 70° 18 - - 29.93 0 Peak wind: 25 mph (22 kts) from 70° at 29 min
2018-09-19 09:00 54 51 - 88 70° 18 24 - 29.91 0 Peak wind: 28 mph (25 kts) from 60° at 22 min
2018-09-19 08:00 54 51 - 91 60° 18 28 - 29.90 0 Peak wind: 28 mph (25 kts) from 70° at 13 min
2018-09-19 07:00 54 51 - 89 60° 20 25 - 29.88 0 Peak wind: 28 mph (25 kts) from 50° at 48 min
2018-09-19 06:00 54 52 - 91 60° 21 26 - 29.88 0 Peak wind: 28 mph (25 kts) from 50° at 02 min
2018-09-19 05:00 54 52 - 91 60° 20 25 - 29.88 0 Peak wind: 27 mph (24 kts) from 60° at 21 min
1-hr Precip Total: 0.01"
2018-09-19 04:00 54 52 - 92 50° 22 29 - 29.87 0 Peak wind: 28 mph (25 kts) from 50° at 39 min
2018-09-19 03:00 54 52 - 91 60° 21 28 - 29.88 0 Peak wind: 33 mph (29 kts) from 70° at 12 min
1-hr Precip Total: 0.02"
2018-09-19 02:00 54 52 - 92 60° 23 31 - 29.88 0 Peak wind: 32 mph (28 kts) from 50° at 27 min
2018-09-19 01:00 55 49 - 80 60° 22 29 - 29.88 0 Peak wind: 32 mph (28 kts) from 50° at 43 min
2018-09-19 00:00 55 52 - 89 60° 22 29 - 29.87 0 Peak wind: 29 mph (26 kts) from 70° at 27 min
1-hr Precip Total: 0.04"
2018-09-18 23:00 55 52 - 89 60° 21 - - 29.86 0 Peak wind: 29 mph (26 kts) from 50° at 05 min
1-hr Precip Total: 0.04"
2018-09-18 22:00 55 53 - 91 60° 22 29 - 29.84 0 Peak wind: 31 mph (27 kts) from 50° at 41 min
1-hr Precip Total: 0.01"
2018-09-18 21:00 56 54 - 91 60° 22 - - 29.82 0 Peak wind: 28 mph (25 kts) from 60° at 01 min
2018-09-18 20:00 57 55 - 91 60° 23 29 - 29.81 0 Peak wind: 28 mph (25 kts) from 50° at 51 min

Support USWX by starting your Amazon purchase here.